sensor_id;sensor_type;location;lat;lon;timestamp;temperature;humidity
37268;DHT22;23154;52.542;13.362;2022-08-04T00:01:54;24.00;97.70
37268;DHT22;23154;52.542;13.362;2022-08-04T00:04:48;24.00;98.30
37268;DHT22;23154;52.542;13.362;2022-08-04T00:07:39;23.90;98.40
37268;DHT22;23154;52.542;13.362;2022-08-04T00:10:07;23.90;98.10
37268;DHT22;23154;52.542;13.362;2022-08-04T00:12:37;23.90;98.70
37268;DHT22;23154;52.542;13.362;2022-08-04T00:15:10;23.90;99.00
37268;DHT22;23154;52.542;13.362;2022-08-04T00:18:02;23.80;99.50
37268;DHT22;23154;52.542;13.362;2022-08-04T00:20:31;23.80;99.20
37268;DHT22;23154;52.542;13.362;2022-08-04T00:22:59;23.70;99.90
37268;DHT22;23154;52.542;13.362;2022-08-04T00:25:25;23.70;99.90
37268;DHT22;23154;52.542;13.362;2022-08-04T00:27:52;23.70;99.70
37268;DHT22;23154;52.542;13.362;2022-08-04T00:30:18;23.70;99.90
37268;DHT22;23154;52.542;13.362;2022-08-04T00:32:43;23.60;99.60
37268;DHT22;23154;52.542;13.362;2022-08-04T00:35:12;23.60;99.50
37268;DHT22;23154;52.542;13.362;2022-08-04T00:37:39;23.60;99.80
37268;DHT22;23154;52.542;13.362;2022-08-04T00:42:50;23.60;99.90
37268;DHT22;23154;52.542;13.362;2022-08-04T00:50:53;23.40;99.90
37268;DHT22;23154;52.542;13.362;2022-08-04T00:53:49;23.40;99.90
37268;DHT22;23154;52.542;13.362;2022-08-04T00:59:13;23.60;97.80
37268;DHT22;23154;52.542;13.362;2022-08-04T01:11:02;23.60;98.40
37268;DHT22;23154;52.542;13.362;2022-08-04T01:18:58;23.30;99.90
37268;DHT22;23154;52.542;13.362;2022-08-04T01:29:48;23.10;99.80
37268;DHT22;23154;52.542;13.362;2022-08-04T01:34:50;23.00;99.90
37268;DHT22;23154;52.542;13.362;2022-08-04T01:40:05;23.00;99.90
37268;DHT22;23154;52.542;13.362;2022-08-04T01:42:32;22.90;99.90
37268;DHT22;23154;52.542;13.362;2022-08-04T01:45:02;22.90;99.90
37268;DHT22;23154;52.542;13.362;2022-08-04T01:47:29;22.90;99.90
37268;DHT22;23154;52.542;13.362;2022-08-04T01:50:07;22.80;99.90
37268;DHT22;23154;52.542;13.362;2022-08-04T01:52:36;22.80;99.90
37268;DHT22;23154;52.542;13.362;2022-08-04T01:55:08;22.70;99.90
37268;DHT22;23154;52.542;13.362;2022-08-04T01:57:43;22.70;99.90
37268;DHT22;23154;52.542;13.362;2022-08-04T02:00:12;22.70;99.90
37268;DHT22;23154;52.542;13.362;2022-08-04T02:02:39;22.60;99.90
37268;DHT22;23154;52.542;13.362;2022-08-04T02:05:08;22.50;99.90
37268;DHT22;23154;52.542;13.362;2022-08-04T02:10:27;22.70;99.90
37268;DHT22;23154;52.542;13.362;2022-08-04T02:18:22;22.70;99.90
37268;DHT22;23154;52.542;13.362;2022-08-04T02:20:56;22.60;99.90
37268;DHT22;23154;52.542;13.362;2022-08-04T02:23:38;22.50;99.90
37268;DHT22;23154;52.542;13.362;2022-08-04T02:26:17;22.50;99.90
37268;DHT22;23154;52.542;13.362;2022-08-04T02:28:55;22.40;99.90
37268;DHT22;23154;52.542;13.362;2022-08-04T02:31:31;22.40;99.90
37268;DHT22;23154;52.542;13.362;2022-08-04T02:34:08;22.30;99.90
37268;DHT22;23154;52.542;13.362;2022-08-04T02:36:40;22.30;99.90
37268;DHT22;23154;52.542;13.362;2022-08-04T02:39:07;22.30;99.90
37268;DHT22;23154;52.542;13.362;2022-08-04T02:41:34;22.30;99.90
37268;DHT22;23154;52.542;13.362;2022-08-04T02:44:06;22.40;99.90
37268;DHT22;23154;52.542;13.362;2022-08-04T02:46:33;22.40;99.90
37268;DHT22;23154;52.542;13.362;2022-08-04T02:49:03;22.40;99.90
37268;DHT22;23154;52.542;13.362;2022-08-04T02:51:32;22.40;99.90
37268;DHT22;23154;52.542;13.362;2022-08-04T02:53:59;22.40;99.90
37268;DHT22;23154;52.542;13.362;2022-08-04T02:56:29;22.40;99.90
37268;DHT22;23154;52.542;13.362;2022-08-04T02:59:03;22.40;99.90
37268;DHT22;23154;52.542;13.362;2022-08-04T03:01:30;22.40;99.90
37268;DHT22;23154;52.542;13.362;2022-08-04T03:04:11;22.30;99.90
37268;DHT22;23154;52.542;13.362;2022-08-04T03:12:44;22.60;99.90
37268;DHT22;23154;52.542;13.362;2022-08-04T03:17:48;22.50;99.90
37268;DHT22;23154;52.542;13.362;2022-08-04T03:29:05;22.20;99.90
37268;DHT22;23154;52.542;13.362;2022-08-04T03:42:38;21.90;99.90
37268;DHT22;23154;52.542;13.362;2022-08-04T03:48:25;22.00;99.90
37268;DHT22;23154;52.542;13.362;2022-08-04T03:51:07;22.10;99.90
37268;DHT22;23154;52.542;13.362;2022-08-04T04:00:05;22.20;99.90
37268;DHT22;23154;52.542;13.362;2022-08-04T04:03:16;22.30;99.90
37268;DHT22;23154;52.542;13.362;2022-08-04T04:06:02;22.30;99.90
37268;DHT22;23154;52.542;13.362;2022-08-04T04:11:43;22.40;99.90
37268;DHT22;23154;52.542;13.362;2022-08-04T04:14:37;22.40;99.90
37268;DHT22;23154;52.542;13.362;2022-08-04T04:17:29;22.50;99.90
37268;DHT22;23154;52.542;13.362;2022-08-04T04:25:33;22.60;99.90
37268;DHT22;23154;52.542;13.362;2022-08-04T04:36:18;22.70;99.90
37268;DHT22;23154;52.542;13.362;2022-08-04T04:52:25;23.10;99.90
37268;DHT22;23154;52.542;13.362;2022-08-04T04:54:57;23.10;99.90
37268;DHT22;23154;52.542;13.362;2022-08-04T04:57:30;23.20;99.90
37268;DHT22;23154;52.542;13.362;2022-08-04T05:00:03;23.20;99.90
37268;DHT22;23154;52.542;13.362;2022-08-04T05:05:19;23.30;99.90
37268;DHT22;23154;52.542;13.362;2022-08-04T05:08:00;23.30;99.90
37268;DHT22;23154;52.542;13.362;2022-08-04T05:15:52;23.50;99.90
37268;DHT22;23154;52.542;13.362;2022-08-04T05:18:24;23.50;99.90
37268;DHT22;23154;52.542;13.362;2022-08-04T05:20:55;23.50;99.90
37268;DHT22;23154;52.542;13.362;2022-08-04T05:23:25;23.60;99.90
37268;DHT22;23154;52.542;13.362;2022-08-04T05:26:03;23.60;99.90
37268;DHT22;23154;52.542;13.362;2022-08-04T05:28:32;23.70;99.90
37268;DHT22;23154;52.542;13.362;2022-08-04T05:31:03;23.80;99.90
37268;DHT22;23154;52.542;13.362;2022-08-04T05:33:48;23.90;99.90
37268;DHT22;23154;52.542;13.362;2022-08-04T05:36:22;23.90;99.90
37268;DHT22;23154;52.542;13.362;2022-08-04T05:38:51;24.00;99.90
37268;DHT22;23154;52.542;13.362;2022-08-04T05:41:18;24.10;99.90
37268;DHT22;23154;52.542;13.362;2022-08-04T05:43:45;24.10;99.90
37268;DHT22;23154;52.542;13.362;2022-08-04T05:46:11;24.20;99.90
37268;DHT22;23154;52.542;13.362;2022-08-04T05:48:38;24.30;99.90
37268;DHT22;23154;52.542;13.362;2022-08-04T05:51:08;24.40;99.90
37268;DHT22;23154;52.542;13.362;2022-08-04T05:53:35;24.40;99.90
37268;DHT22;23154;52.542;13.362;2022-08-04T05:56:02;24.50;99.90
37268;DHT22;23154;52.542;13.362;2022-08-04T05:58:30;24.60;99.90
37268;DHT22;23154;52.542;13.362;2022-08-04T06:00:59;24.70;99.90
37268;DHT22;23154;52.542;13.362;2022-08-04T06:03:28;24.80;99.90
37268;DHT22;23154;52.542;13.362;2022-08-04T06:05:56;24.80;99.40
37268;DHT22;23154;52.542;13.362;2022-08-04T06:08:22;24.80;98.90
37268;DHT22;23154;52.542;13.362;2022-08-04T06:10:50;24.80;98.60
37268;DHT22;23154;52.542;13.362;2022-08-04T06:13:19;25.00;98.80
37268;DHT22;23154;52.542;13.362;2022-08-04T06:15:50;25.10;98.50
37268;DHT22;23154;52.542;13.362;2022-08-04T06:18:19;25.10;98.30
37268;DHT22;23154;52.542;13.362;2022-08-04T06:20:46;25.20;98.00
37268;DHT22;23154;52.542;13.362;2022-08-04T06:23:14;25.30;97.80
37268;DHT22;23154;52.542;13.362;2022-08-04T06:25:45;25.50;97.30
37268;DHT22;23154;52.542;13.362;2022-08-04T06:28:12;25.50;97.10
37268;DHT22;23154;52.542;13.362;2022-08-04T06:30:39;25.60;96.80
37268;DHT22;23154;52.542;13.362;2022-08-04T06:33:07;25.70;96.00
37268;DHT22;23154;52.542;13.362;2022-08-04T06:35:58;25.70;95.50
37268;DHT22;23154;52.542;13.362;2022-08-04T06:38:26;25.90;95.40
37268;DHT22;23154;52.542;13.362;2022-08-04T06:40:53;26.00;94.90
37268;DHT22;23154;52.542;13.362;2022-08-04T06:43:21;26.10;94.50
37268;DHT22;23154;52.542;13.362;2022-08-04T06:45:48;26.10;94.10
37268;DHT22;23154;52.542;13.362;2022-08-04T06:48:15;26.20;93.70
37268;DHT22;23154;52.542;13.362;2022-08-04T06:50:50;26.30;93.70
37268;DHT22;23154;52.542;13.362;2022-08-04T06:53:17;26.40;93.50
37268;DHT22;23154;52.542;13.362;2022-08-04T06:55:46;26.50;93.30
37268;DHT22;23154;52.542;13.362;2022-08-04T06:58:14;26.60;92.80
37268;DHT22;23154;52.542;13.362;2022-08-04T07:00:44;26.60;92.10
37268;DHT22;23154;52.542;13.362;2022-08-04T07:03:10;26.60;91.80
37268;DHT22;23154;52.542;13.362;2022-08-04T07:05:39;26.80;91.80
37268;DHT22;23154;52.542;13.362;2022-08-04T07:08:06;26.80;91.60
37268;DHT22;23154;52.542;13.362;2022-08-04T07:10:33;27.00;91.40
37268;DHT22;23154;52.542;13.362;2022-08-04T07:12:59;27.10;91.30
37268;DHT22;23154;52.542;13.362;2022-08-04T07:15:26;27.20;90.80
37268;DHT22;23154;52.542;13.362;2022-08-04T07:17:53;27.20;90.60
37268;DHT22;23154;52.542;13.362;2022-08-04T07:20:19;27.30;90.50
37268;DHT22;23154;52.542;13.362;2022-08-04T07:22:48;27.30;90.10
37268;DHT22;23154;52.542;13.362;2022-08-04T07:25:15;27.40;90.10
37268;DHT22;23154;52.542;13.362;2022-08-04T07:27:41;27.40;89.30
37268;DHT22;23154;52.542;13.362;2022-08-04T07:30:09;27.50;89.00
37268;DHT22;23154;52.542;13.362;2022-08-04T07:32:35;27.70;88.20
37268;DHT22;23154;52.542;13.362;2022-08-04T07:35:03;27.80;88.50
37268;DHT22;23154;52.542;13.362;2022-08-04T07:37:30;27.90;87.40
37268;DHT22;23154;52.542;13.362;2022-08-04T07:39:56;28.10;85.90
37268;DHT22;23154;52.542;13.362;2022-08-04T07:42:21;28.20;85.20
37268;DHT22;23154;52.542;13.362;2022-08-04T07:44:47;28.30;85.10
37268;DHT22;23154;52.542;13.362;2022-08-04T07:47:13;28.40;83.90
37268;DHT22;23154;52.542;13.362;2022-08-04T07:49:40;28.40;83.70
37268;DHT22;23154;52.542;13.362;2022-08-04T07:52:06;28.40;83.50
37268;DHT22;23154;52.542;13.362;2022-08-04T07:54:32;28.50;82.80
37268;DHT22;23154;52.542;13.362;2022-08-04T07:56:59;28.70;82.20
37268;DHT22;23154;52.542;13.362;2022-08-04T07:59:25;28.70;80.90
37268;DHT22;23154;52.542;13.362;2022-08-04T08:01:52;28.80;80.50
37268;DHT22;23154;52.542;13.362;2022-08-04T08:04:18;28.90;79.90
37268;DHT22;23154;52.542;13.362;2022-08-04T08:06:44;28.90;80.00
37268;DHT22;23154;52.542;13.362;2022-08-04T08:09:14;29.00;79.00
37268;DHT22;23154;52.542;13.362;2022-08-04T08:11:45;29.20;79.00
37268;DHT22;23154;52.542;13.362;2022-08-04T08:14:15;29.20;78.40
37268;DHT22;23154;52.542;13.362;2022-08-04T08:16:41;29.20;78.50
37268;DHT22;23154;52.542;13.362;2022-08-04T08:19:07;29.40;78.10
37268;DHT22;23154;52.542;13.362;2022-08-04T08:21:34;29.60;78.30
37268;DHT22;23154;52.542;13.362;2022-08-04T08:24:00;29.70;78.00
37268;DHT22;23154;52.542;13.362;2022-08-04T08:26:26;29.80;76.20
37268;DHT22;23154;52.542;13.362;2022-08-04T08:28:51;29.80;75.70
37268;DHT22;23154;52.542;13.362;2022-08-04T08:31:17;29.90;75.60
37268;DHT22;23154;52.542;13.362;2022-08-04T08:33:43;29.80;75.20
37268;DHT22;23154;52.542;13.362;2022-08-04T08:44:28;30.50;73.30
37268;DHT22;23154;52.542;13.362;2022-08-04T08:47:03;30.70;72.30
37268;DHT22;23154;52.542;13.362;2022-08-04T09:00:37;31.00;72.20
37268;DHT22;23154;52.542;13.362;2022-08-04T09:03:44;31.10;72.20
37268;DHT22;23154;52.542;13.362;2022-08-04T09:11:57;31.20;73.40
37268;DHT22;23154;52.542;13.362;2022-08-04T09:14:28;31.30;71.00
37268;DHT22;23154;52.542;13.362;2022-08-04T09:17:02;31.40;70.90
37268;DHT22;23154;52.542;13.362;2022-08-04T09:19:49;31.50;69.60
37268;DHT22;23154;52.542;13.362;2022-08-04T09:25:10;31.60;69.20
37268;DHT22;23154;52.542;13.362;2022-08-04T09:27:57;31.60;69.90
37268;DHT22;23154;52.542;13.362;2022-08-04T09:36:38;32.10;68.20
37268;DHT22;23154;52.542;13.362;2022-08-04T09:42:16;32.10;63.80
37268;DHT22;23154;52.542;13.362;2022-08-04T09:53:01;32.60;65.00
37268;DHT22;23154;52.542;13.362;2022-08-04T09:58:24;32.90;65.40
37268;DHT22;23154;52.542;13.362;2022-08-04T10:00:59;33.00;65.40
37268;DHT22;23154;52.542;13.362;2022-08-04T10:03:31;32.90;66.60
37268;DHT22;23154;52.542;13.362;2022-08-04T10:06:09;33.10;66.20
37268;DHT22;23154;52.542;13.362;2022-08-04T10:09:07;33.10;65.00
37268;DHT22;23154;52.542;13.362;2022-08-04T10:12:06;33.00;66.50
37268;DHT22;23154;52.542;13.362;2022-08-04T10:20:07;33.00;64.90
37268;DHT22;23154;52.542;13.362;2022-08-04T10:22:42;33.10;64.40
37268;DHT22;23154;52.542;13.362;2022-08-04T10:28:02;33.40;63.30
37268;DHT22;23154;52.542;13.362;2022-08-04T10:30:32;33.50;61.90
37268;DHT22;23154;52.542;13.362;2022-08-04T10:35:50;33.50;63.20
37268;DHT22;23154;52.542;13.362;2022-08-04T10:38:26;33.60;63.20
37268;DHT22;23154;52.542;13.362;2022-08-04T10:41:08;33.70;61.90
37268;DHT22;23154;52.542;13.362;2022-08-04T10:46:17;33.70;61.20
37268;DHT22;23154;52.542;13.362;2022-08-04T10:49:22;33.60;60.60
37268;DHT22;23154;52.542;13.362;2022-08-04T10:54:23;33.70;61.80
37268;DHT22;23154;52.542;13.362;2022-08-04T10:56:52;33.80;61.60
37268;DHT22;23154;52.542;13.362;2022-08-04T10:59:40;33.90;60.40
37268;DHT22;23154;52.542;13.362;2022-08-04T11:02:26;34.00;59.50
37268;DHT22;23154;52.542;13.362;2022-08-04T11:08:09;34.10;58.80
37268;DHT22;23154;52.542;13.362;2022-08-04T11:10:45;34.40;58.70
37268;DHT22;23154;52.542;13.362;2022-08-04T11:13:14;34.40;57.80
37268;DHT22;23154;52.542;13.362;2022-08-04T11:15:45;34.50;58.20
37268;DHT22;23154;52.542;13.362;2022-08-04T11:21:01;34.40;57.90
37268;DHT22;23154;52.542;13.362;2022-08-04T11:23:33;34.60;57.50
37268;DHT22;23154;52.542;13.362;2022-08-04T11:26:28;34.70;57.60
37268;DHT22;23154;52.542;13.362;2022-08-04T11:29:04;34.80;58.50
37268;DHT22;23154;52.542;13.362;2022-08-04T11:31:39;34.70;57.50
37268;DHT22;23154;52.542;13.362;2022-08-04T11:34:26;34.90;57.60
37268;DHT22;23154;52.542;13.362;2022-08-04T11:39:47;35.10;57.40
37268;DHT22;23154;52.542;13.362;2022-08-04T11:50:28;35.20;55.20
37268;DHT22;23154;52.542;13.362;2022-08-04T11:52:57;35.20;55.80
37268;DHT22;23154;52.542;13.362;2022-08-04T11:55:26;35.10;56.00
37268;DHT22;23154;52.542;13.362;2022-08-04T11:57:53;35.30;55.20
37268;DHT22;23154;52.542;13.362;2022-08-04T12:00:22;35.40;55.20
37268;DHT22;23154;52.542;13.362;2022-08-04T12:05:30;35.30;55.90
37268;DHT22;23154;52.542;13.362;2022-08-04T12:11:04;35.10;54.30
37268;DHT22;23154;52.542;13.362;2022-08-04T12:21:49;36.00;52.20
37268;DHT22;23154;52.542;13.362;2022-08-04T12:24:22;36.10;51.80
37268;DHT22;23154;52.542;13.362;2022-08-04T12:26:52;36.40;51.50
37268;DHT22;23154;52.542;13.362;2022-08-04T12:29:19;36.50;51.50
37268;DHT22;23154;52.542;13.362;2022-08-04T12:34:39;36.80;51.20
37268;DHT22;23154;52.542;13.362;2022-08-04T12:37:28;36.80;50.90
37268;DHT22;23154;52.542;13.362;2022-08-04T12:40:04;36.80;51.10
37268;DHT22;23154;52.542;13.362;2022-08-04T12:42:43;36.50;51.50
37268;DHT22;23154;52.542;13.362;2022-08-04T12:45:10;36.20;51.40
37268;DHT22;23154;52.542;13.362;2022-08-04T12:47:37;35.90;52.20
37268;DHT22;23154;52.542;13.362;2022-08-04T12:50:04;35.90;52.20
37268;DHT22;23154;52.542;13.362;2022-08-04T12:52:42;36.20;52.00
37268;DHT22;23154;52.542;13.362;2022-08-04T12:55:09;36.30;50.80
37268;DHT22;23154;52.542;13.362;2022-08-04T12:57:36;36.20;51.00
37268;DHT22;23154;52.542;13.362;2022-08-04T13:00:03;36.50;51.50
37268;DHT22;23154;52.542;13.362;2022-08-04T13:02:34;36.50;50.30
37268;DHT22;23154;52.542;13.362;2022-08-04T13:05:04;36.40;50.20
37268;DHT22;23154;52.542;13.362;2022-08-04T13:07:39;36.50;50.60
37268;DHT22;23154;52.542;13.362;2022-08-04T13:10:14;36.90;50.50
37268;DHT22;23154;52.542;13.362;2022-08-04T13:12:48;36.80;50.10
37268;DHT22;23154;52.542;13.362;2022-08-04T13:15:20;36.50;49.70
37268;DHT22;23154;52.542;13.362;2022-08-04T13:17:52;36.60;49.60
37268;DHT22;23154;52.542;13.362;2022-08-04T13:20:29;36.40;49.80
37268;DHT22;23154;52.542;13.362;2022-08-04T13:23:14;36.50;49.60
37268;DHT22;23154;52.542;13.362;2022-08-04T13:25:42;36.60;49.00
37268;DHT22;23154;52.542;13.362;2022-08-04T13:28:14;36.70;48.80
37268;DHT22;23154;52.542;13.362;2022-08-04T13:30:43;36.80;49.60
37268;DHT22;23154;52.542;13.362;2022-08-04T13:33:11;36.60;48.70
37268;DHT22;23154;52.542;13.362;2022-08-04T13:35:45;36.80;49.20
37268;DHT22;23154;52.542;13.362;2022-08-04T13:38:12;36.70;49.00
37268;DHT22;23154;52.542;13.362;2022-08-04T13:40:43;36.70;48.80
37268;DHT22;23154;52.542;13.362;2022-08-04T13:43:21;36.50;48.50
37268;DHT22;23154;52.542;13.362;2022-08-04T13:45:48;36.70;47.60
37268;DHT22;23154;52.542;13.362;2022-08-04T13:48:15;37.00;47.50
37268;DHT22;23154;52.542;13.362;2022-08-04T13:50:45;37.40;47.30
37268;DHT22;23154;52.542;13.362;2022-08-04T13:53:11;37.60;46.90
37268;DHT22;23154;52.542;13.362;2022-08-04T13:55:38;37.40;46.70
37268;DHT22;23154;52.542;13.362;2022-08-04T13:58:09;37.20;46.20
37268;DHT22;23154;52.542;13.362;2022-08-04T14:00:53;37.30;46.60
37268;DHT22;23154;52.542;13.362;2022-08-04T14:08:52;37.20;46.70
37268;DHT22;23154;52.542;13.362;2022-08-04T14:11:30;37.40;46.70
37268;DHT22;23154;52.542;13.362;2022-08-04T14:13:57;37.50;46.40
37268;DHT22;23154;52.542;13.362;2022-08-04T14:16:23;37.50;46.00
37268;DHT22;23154;52.542;13.362;2022-08-04T14:18:58;37.50;45.40
37268;DHT22;23154;52.542;13.362;2022-08-04T14:21:25;38.30;44.30
37268;DHT22;23154;52.542;13.362;2022-08-04T14:23:55;38.20;44.30
37268;DHT22;23154;52.542;13.362;2022-08-04T14:26:29;38.20;44.00
37268;DHT22;23154;52.542;13.362;2022-08-04T14:31:34;38.00;44.10
37268;DHT22;23154;52.542;13.362;2022-08-04T14:33:59;38.80;43.70
37268;DHT22;23154;52.542;13.362;2022-08-04T14:36:25;39.00;43.00
37268;DHT22;23154;52.542;13.362;2022-08-04T14:38:53;39.10;42.50
37268;DHT22;23154;52.542;13.362;2022-08-04T14:41:24;39.30;42.00
37268;DHT22;23154;52.542;13.362;2022-08-04T14:46:18;40.20;40.30
37268;DHT22;23154;52.542;13.362;2022-08-04T14:49:07;40.00;40.70
37268;DHT22;23154;52.542;13.362;2022-08-04T14:51:34;40.60;39.90
37268;DHT22;23154;52.542;13.362;2022-08-04T14:54:00;40.90;39.80
37268;DHT22;23154;52.542;13.362;2022-08-04T14:56:26;40.90;39.60
37268;DHT22;23154;52.542;13.362;2022-08-04T14:59:06;39.90;40.00
37268;DHT22;23154;52.542;13.362;2022-08-04T15:01:32;39.50;41.20
37268;DHT22;23154;52.542;13.362;2022-08-04T15:04:01;39.30;41.00
37268;DHT22;23154;52.542;13.362;2022-08-04T15:06:28;39.70;41.60
37268;DHT22;23154;52.542;13.362;2022-08-04T15:09:01;40.20;40.90
37268;DHT22;23154;52.542;13.362;2022-08-04T15:11:27;40.00;40.70
37268;DHT22;23154;52.542;13.362;2022-08-04T15:13:56;39.80;41.20
37268;DHT22;23154;52.542;13.362;2022-08-04T15:16:24;39.20;42.00
37268;DHT22;23154;52.542;13.362;2022-08-04T15:18:50;39.50;42.10
37268;DHT22;23154;52.542;13.362;2022-08-04T15:21:16;39.80;42.10
37268;DHT22;23154;52.542;13.362;2022-08-04T15:23:42;40.50;40.80
37268;DHT22;23154;52.542;13.362;2022-08-04T15:26:14;40.70;40.60
37268;DHT22;23154;52.542;13.362;2022-08-04T15:28:46;40.50;40.70
37268;DHT22;23154;52.542;13.362;2022-08-04T15:31:15;40.00;41.70
37268;DHT22;23154;52.542;13.362;2022-08-04T15:33:42;39.80;41.40
37268;DHT22;23154;52.542;13.362;2022-08-04T15:37:31;38.90;41.90
37268;DHT22;23154;52.542;13.362;2022-08-04T15:39:34;38.90;42.50
37268;DHT22;23154;52.542;13.362;2022-08-04T15:42:13;39.70;42.30
37268;DHT22;23154;52.542;13.362;2022-08-04T15:45:17;39.60;42.90
37268;DHT22;23154;52.542;13.362;2022-08-04T15:50:30;39.60;41.50
37268;DHT22;23154;52.542;13.362;2022-08-04T15:58:14;38.80;43.70
37268;DHT22;23154;52.542;13.362;2022-08-04T16:08:25;39.00;43.10
37268;DHT22;23154;52.542;13.362;2022-08-04T16:10:52;38.90;43.10
37268;DHT22;23154;52.542;13.362;2022-08-04T16:13:21;38.40;44.10
37268;DHT22;23154;52.542;13.362;2022-08-04T16:15:55;37.60;45.60
37268;DHT22;23154;52.542;13.362;2022-08-04T16:20:58;37.10;46.40
37268;DHT22;23154;52.542;13.362;2022-08-04T16:23:49;37.30;46.60
37268;DHT22;23154;52.542;13.362;2022-08-04T16:26:46;37.30;46.10
37268;DHT22;23154;52.542;13.362;2022-08-04T16:37:12;37.30;46.50
37268;DHT22;23154;52.542;13.362;2022-08-04T16:39:39;37.50;46.60
37268;DHT22;23154;52.542;13.362;2022-08-04T16:42:28;37.40;46.40
37268;DHT22;23154;52.542;13.362;2022-08-04T16:50:19;37.60;46.70
37268;DHT22;23154;52.542;13.362;2022-08-04T16:52:48;37.70;45.70
37268;DHT22;23154;52.542;13.362;2022-08-04T16:55:18;37.80;46.70
37268;DHT22;23154;52.542;13.362;2022-08-04T16:57:45;38.10;46.20
37268;DHT22;23154;52.542;13.362;2022-08-04T17:00:11;38.50;45.90
37268;DHT22;23154;52.542;13.362;2022-08-04T17:02:37;38.90;44.70
37268;DHT22;23154;52.542;13.362;2022-08-04T17:05:03;39.20;44.20
37268;DHT22;23154;52.542;13.362;2022-08-04T17:07:50;39.00;44.20
37268;DHT22;23154;52.542;13.362;2022-08-04T17:10:15;39.00;44.60
37268;DHT22;23154;52.542;13.362;2022-08-04T17:12:41;39.40;44.40
37268;DHT22;23154;52.542;13.362;2022-08-04T17:15:27;39.30;43.70
37268;DHT22;23154;52.542;13.362;2022-08-04T17:18:13;39.70;44.00
37268;DHT22;23154;52.542;13.362;2022-08-04T17:20:40;39.80;43.40
37268;DHT22;23154;52.542;13.362;2022-08-04T17:25:57;38.90;43.70
37268;DHT22;23154;52.542;13.362;2022-08-04T17:28:23;38.90;43.90
37268;DHT22;23154;52.542;13.362;2022-08-04T17:30:50;39.10;44.40
37268;DHT22;23154;52.542;13.362;2022-08-04T17:33:17;39.10;44.50
37268;DHT22;23154;52.542;13.362;2022-08-04T17:35:46;39.10;43.90
37268;DHT22;23154;52.542;13.362;2022-08-04T17:38:12;38.80;44.10
37268;DHT22;23154;52.542;13.362;2022-08-04T17:41:12;38.40;44.50
37268;DHT22;23154;52.542;13.362;2022-08-04T17:43:44;38.60;44.40
37268;DHT22;23154;52.542;13.362;2022-08-04T17:46:46;38.50;45.10
37268;DHT22;23154;52.542;13.362;2022-08-04T17:54:08;38.40;45.00
37268;DHT22;23154;52.542;13.362;2022-08-04T17:56:50;38.40;45.40
37268;DHT22;23154;52.542;13.362;2022-08-04T18:04:32;37.90;46.30
37268;DHT22;23154;52.542;13.362;2022-08-04T18:07:12;37.60;46.60
37268;DHT22;23154;52.542;13.362;2022-08-04T18:09:57;37.60;46.80
37268;DHT22;23154;52.542;13.362;2022-08-04T18:12:25;37.30;47.30
37268;DHT22;23154;52.542;13.362;2022-08-04T18:14:54;36.90;47.30
37268;DHT22;23154;52.542;13.362;2022-08-04T18:19:59;35.60;49.60
37268;DHT22;23154;52.542;13.362;2022-08-04T18:22:26;35.00;50.70
37268;DHT22;23154;52.542;13.362;2022-08-04T18:24:51;34.60;51.30
37268;DHT22;23154;52.542;13.362;2022-08-04T18:27:23;34.20;51.90
37268;DHT22;23154;52.542;13.362;2022-08-04T18:29:49;33.90;52.50
37268;DHT22;23154;52.542;13.362;2022-08-04T18:32:15;33.60;52.80
37268;DHT22;23154;52.542;13.362;2022-08-04T18:34:41;33.30;53.70
37268;DHT22;23154;52.542;13.362;2022-08-04T18:37:07;33.10;54.20
37268;DHT22;23154;52.542;13.362;2022-08-04T18:39:32;32.90;54.90
37268;DHT22;23154;52.542;13.362;2022-08-04T18:41:59;32.70;55.10
37268;DHT22;23154;52.542;13.362;2022-08-04T18:44:25;32.50;55.60
37268;DHT22;23154;52.542;13.362;2022-08-04T18:46:53;32.30;56.20
37268;DHT22;23154;52.542;13.362;2022-08-04T18:49:20;32.10;56.70
37268;DHT22;23154;52.542;13.362;2022-08-04T18:51:52;32.10;57.00
37268;DHT22;23154;52.542;13.362;2022-08-04T18:54:17;31.90;57.40
37268;DHT22;23154;52.542;13.362;2022-08-04T18:56:43;31.70;57.90
37268;DHT22;23154;52.542;13.362;2022-08-04T18:59:09;31.60;58.30
37268;DHT22;23154;52.542;13.362;2022-08-04T19:01:35;31.40;58.90
37268;DHT22;23154;52.542;13.362;2022-08-04T19:04:00;31.30;59.20
37268;DHT22;23154;52.542;13.362;2022-08-04T19:06:28;31.20;59.50
37268;DHT22;23154;52.542;13.362;2022-08-04T19:08:55;31.10;59.40
37268;DHT22;23154;52.542;13.362;2022-08-04T19:11:21;31.00;60.20
37268;DHT22;23154;52.542;13.362;2022-08-04T19:13:46;31.00;61.80
37268;DHT22;23154;52.542;13.362;2022-08-04T19:16:12;30.90;62.30
37268;DHT22;23154;52.542;13.362;2022-08-04T19:18:38;30.80;62.40
37268;DHT22;23154;52.542;13.362;2022-08-04T19:21:04;30.80;62.10
37268;DHT22;23154;52.542;13.362;2022-08-04T19:23:30;30.70;62.80
37268;DHT22;23154;52.542;13.362;2022-08-04T19:25:56;30.70;62.90
37268;DHT22;23154;52.542;13.362;2022-08-04T19:28:23;30.50;63.10
37268;DHT22;23154;52.542;13.362;2022-08-04T19:30:51;30.40;62.80
37268;DHT22;23154;52.542;13.362;2022-08-04T19:33:17;30.40;62.80
37268;DHT22;23154;52.542;13.362;2022-08-04T19:35:43;30.30;62.20
37268;DHT22;23154;52.542;13.362;2022-08-04T19:38:09;30.20;62.40
37268;DHT22;23154;52.542;13.362;2022-08-04T19:40:36;30.10;63.70
37268;DHT22;23154;52.542;13.362;2022-08-04T19:43:03;30.10;64.20
37268;DHT22;23154;52.542;13.362;2022-08-04T19:45:30;30.00;63.60
37268;DHT22;23154;52.542;13.362;2022-08-04T19:47:56;30.00;64.90
37268;DHT22;23154;52.542;13.362;2022-08-04T19:50:22;30.00;64.90
37268;DHT22;23154;52.542;13.362;2022-08-04T19:52:48;29.90;64.30
37268;DHT22;23154;52.542;13.362;2022-08-04T19:55:13;29.90;64.10
37268;DHT22;23154;52.542;13.362;2022-08-04T19:57:39;29.80;64.70
37268;DHT22;23154;52.542;13.362;2022-08-04T20:00:12;29.70;63.70
37268;DHT22;23154;52.542;13.362;2022-08-04T20:02:39;29.70;64.30
37268;DHT22;23154;52.542;13.362;2022-08-04T20:05:05;29.70;64.50
37268;DHT22;23154;52.542;13.362;2022-08-04T20:07:32;29.60;64.40
37268;DHT22;23154;52.542;13.362;2022-08-04T20:09:58;29.60;64.40
37268;DHT22;23154;52.542;13.362;2022-08-04T20:12:24;29.70;64.40
37268;DHT22;23154;52.542;13.362;2022-08-04T20:14:49;29.60;64.00
37268;DHT22;23154;52.542;13.362;2022-08-04T20:17:15;29.50;63.60
37268;DHT22;23154;52.542;13.362;2022-08-04T20:19:41;29.50;63.40
37268;DHT22;23154;52.542;13.362;2022-08-04T20:22:07;29.40;63.60